Route Details

Aircraft Information
Group: Boeing 737 Only
Types: B738
Route Data
Distance: 806nm
Duration: 2h 50m
Origin METAR: MHTG 010600Z 06005KT 9999 BKN030 20/16 Q1020 A3012 NOSIG
Dest. METAR: KMIA 010553Z 11004KT 10SM CLR 23/20 A3017 RMK AO2 SLP218 T02280200 10250 20228 58008 $
Freight Data
(for Feb 1, 2023)
Load Factor:
74%
Manifested Cargo: 41,128lbs
Financial History
Total Freight: 73,043lbs
Average Load: 0lbs/flt
Fuel Used: 21,335lbs
Avg. Fuel Used: 0lbs/flt
Fuel Expense: $11,176
Avg. Fuel Expense: $0
Avg. Fuel Cost: $0/lbs
Total Gross Income: $227,894
Pilot Pay: $538
Total Expenses: $57,302
Total Revenue: $157,489
Average Revenue: $0

Capitol Logistics 776




MHTG
Toncontín International Airport
Tegucigalpa, HN
KMIA
Miami International Airport
Miami, US

Activity Log

Date Flight Route Aircraft Duration
12/02/2022 CPX776 Not Available B738 2h 33m
08/02/2022 CPX776 BTO1 BTO UZ498 PABEL UL471 FARKO DCT MTH DVALL3 B738 2h 06m